Time,TemperatureF,DewpointF,PressureIn,WindDirection,WindDirectionDegrees,WindSpeedMPH,WindSpeedGustMPH,Humidity,HourlyPrecipIn,Conditions,Clouds,dailyrainin,SoftwareType,DateUTC
2013-11-02 00:01:00,62.1,60.7,29.52,NW,315,0.2,0.9,95,0.00,,,0.00,WUHU216HW,2013-11-02 04:01:00,
2013-11-02 00:02:00,62.3,60.8,29.52,NNE,23,0.2,0.9,95,0.00,,,0.00,WUHU216HW,2013-11-02 04:02:00,
2013-11-02 00:07:00,62.3,60.8,29.52,ENE,68,0.2,0.9,95,0.00,,,0.00,WUHU216HW,2013-11-02 04:07:00,
2013-11-02 00:12:00,62.3,60.6,29.52,North,0,0.2,0.7,94,0.00,,,0.00,WUHU216HW,2013-11-02 04:12:00,
2013-11-02 00:17:00,62.5,61.0,29.51,ESE,113,0.4,0.9,95,0.00,,,0.00,WUHU216HW,2013-11-02 04:17:00,
2013-11-02 00:22:00,62.5,61.0,29.51,NE,45,0.2,1.3,95,0.00,,,0.00,WUHU216HW,2013-11-02 04:22:00,
2013-11-02 00:27:00,62.5,61.0,29.50,ENE,68,0.2,1.3,95,0.00,,,0.00,WUHU216HW,2013-11-02 04:27:00,
2013-11-02 00:32:00,62.5,61.0,29.51,NE,45,0.7,1.1,95,0.00,,,0.00,WUHU216HW,2013-11-02 04:32:00,
2013-11-02 00:37:00,62.5,61.0,29.51,NE,45,0.2,0.7,95,0.00,,,0.00,WUHU216HW,2013-11-02 04:37:00,
2013-11-02 00:42:00,62.5,61.0,29.51,NE,45,0.0,0.4,95,0.00,,,0.00,WUHU216HW,2013-11-02 04:42:00,
2013-11-02 00:47:00,62.5,61.0,29.50,NE,45,0.0,0.7,95,0.00,,,0.00,WUHU216HW,2013-11-02 04:47:00,
2013-11-02 00:52:00,62.3,60.8,29.50,NE,45,0.0,0.7,95,0.00,,,0.00,WUHU216HW,2013-11-02 04:52:00,
2013-11-02 00:57:00,62.3,60.8,29.49,NE,45,0.0,0.0,95,0.00,,,0.00,WUHU216HW,2013-11-02 04:57:00,
2013-11-02 01:02:00,62.3,60.8,29.50,NE,45,0.0,0.0,95,0.00,,,0.00,WUHU216HW,2013-11-02 05:02:00,
2013-11-02 01:07:00,62.3,60.8,29.49,NE,45,0.0,0.4,95,0.00,,,0.00,WUHU216HW,2013-11-02 05:07:00,
2013-11-02 01:12:00,62.3,60.8,29.49,NNE,23,0.4,1.1,95,0.00,,,0.00,WUHU216HW,2013-11-02 05:12:00,
2013-11-02 01:17:00,62.3,60.8,29.49,NNE,23,0.4,1.1,95,0.00,,,0.00,WUHU216HW,2013-11-02 05:17:00,
2013-11-02 01:22:00,62.5,61.0,29.49,NW,315,0.2,1.3,95,0.00,,,0.00,WUHU216HW,2013-11-02 05:22:00,
2013-11-02 01:27:00,62.5,61.0,29.49,NW,315,0.0,1.3,95,0.00,,,0.00,WUHU216HW,2013-11-02 05:27:00,
2013-11-02 01:32:00,62.5,61.0,29.49,NW,315,0.0,0.9,95,0.00,,,0.00,WUHU216HW,2013-11-02 05:32:00,
2013-11-02 01:37:00,62.3,60.8,29.49,NW,315,0.0,0.9,95,0.00,,,0.00,WUHU216HW,2013-11-02 05:37:00,
2013-11-02 01:42:00,62.3,60.8,29.49,NW,315,0.7,0.9,95,0.00,,,0.00,WUHU216HW,2013-11-02 05:42:00,
2013-11-02 01:47:00,62.1,60.7,29.49,NW,315,0.0,0.9,95,0.00,,,0.00,WUHU216HW,2013-11-02 05:47:00,
2013-11-02 01:52:00,62.1,60.7,29.49,NW,315,0.0,0.7,95,0.00,,,0.00,WUHU216HW,2013-11-02 05:52:00,
2013-11-02 01:57:00,61.9,60.5,29.49,NW,315,0.0,0.0,95,0.00,,,0.00,WUHU216HW,2013-11-02 05:57:00,
2013-11-02 02:02:00,61.9,60.5,29.49,NW,315,0.0,0.0,95,0.00,,,0.00,WUHU216HW,2013-11-02 06:02:00,
2013-11-02 02:07:00,61.7,60.3,29.49,NW,315,0.0,0.0,95,0.00,,,0.00,WUHU216HW,2013-11-02 06:07:00,
2013-11-02 02:12:00,61.7,60.3,29.48,NW,315,0.0,0.0,95,0.00,,,0.00,WUHU216HW,2013-11-02 06:12:00,
2013-11-02 02:17:00,61.6,60.1,29.48,NW,315,0.0,0.2,95,0.00,,,0.00,WUHU216HW,2013-11-02 06:17:00,
2013-11-02 02:22:00,61.6,60.1,29.48,NW,315,0.0,0.4,95,0.00,,,0.00,WUHU216HW,2013-11-02 06:22:00,
2013-11-02 02:27:00,61.6,60.1,29.47,NW,315,0.0,0.4,95,0.00,,,0.00,WUHU216HW,2013-11-02 06:27:00,
2013-11-02 02:32:00,61.4,59.9,29.47,NW,315,0.0,0.2,95,0.00,,,0.00,WUHU216HW,2013-11-02 06:32:00,
2013-11-02 02:37:00,61.4,59.9,29.47,NW,315,0.2,0.9,95,0.00,,,0.00,WUHU216HW,2013-11-02 06:37:00,
2013-11-02 02:42:00,61.2,59.8,29.48,NW,315,0.0,0.9,95,0.00,,,0.00,WUHU216HW,2013-11-02 06:42:00,
2013-11-02 02:47:00,61.2,59.8,29.48,NW,315,0.0,0.2,95,0.00,,,0.00,WUHU216HW,2013-11-02 06:47:00,
2013-11-02 02:52:00,61.2,59.8,29.48,NW,315,0.0,0.7,95,0.00,,,0.00,WUHU216HW,2013-11-02 06:52:00,
2013-11-02 02:57:00,61.2,59.8,29.49,NW,315,0.0,0.7,95,0.00,,,0.00,WUHU216HW,2013-11-02 06:57:00,
2013-11-02 03:02:00,61.2,59.8,29.48,NW,315,0.0,0.0,95,0.00,,,0.00,WUHU216HW,2013-11-02 07:02:00,
2013-11-02 03:07:00,61.2,59.8,29.49,NW,315,0.9,0.9,95,0.00,,,0.00,WUHU216HW,2013-11-02 07:07:00,
2013-11-02 03:12:00,61.2,59.8,29.49,WSW,248,0.4,1.1,95,0.00,,,0.00,WUHU216HW,2013-11-02 07:12:00,
2013-11-02 03:17:00,61.2,59.8,29.49,West,270,1.1,2.0,95,0.00,,,0.00,WUHU216HW,2013-11-02 07:17:00,
2013-11-02 03:22:00,61.2,59.8,29.49,NW,315,0.2,2.0,95,0.00,,,0.00,WUHU216HW,2013-11-02 07:22:00,
2013-11-02 03:27:00,61.2,59.8,29.49,SW,225,0.7,1.8,95,0.00,,,0.00,WUHU216HW,2013-11-02 07:27:00,
2013-11-02 03:32:00,61.0,59.9,29.48,WNW,293,0.4,2.5,96,0.00,,,0.00,WUHU216HW,2013-11-02 07:32:00,
2013-11-02 03:37:00,61.0,59.9,29.49,NW,315,1.1,4.3,96,0.00,,,0.00,WUHU216HW,2013-11-02 07:37:00,
2013-11-02 03:42:00,60.8,59.7,29.48,East,90,0.4,6.0,96,0.00,,,0.00,WUHU216HW,2013-11-02 07:42:00,
2013-11-02 03:47:00,60.8,59.7,29.48,WNW,293,2.0,6.0,96,0.00,,,0.00,WUHU216HW,2013-11-02 07:47:00,
2013-11-02 03:52:00,60.8,59.7,29.48,WNW,293,0.0,5.6,96,0.00,,,0.00,WUHU216HW,2013-11-02 07:52:00,
2013-11-02 03:57:00,60.7,59.5,29.48,WNW,293,2.7,4.3,96,0.00,,,0.00,WUHU216HW,2013-11-02 07:57:00,
2013-11-02 04:02:00,60.5,59.3,29.49,West,270,2.2,4.3,96,0.00,,,0.00,WUHU216HW,2013-11-02 08:02:00,
2013-11-02 04:07:00,60.5,59.3,29.49,West,270,0.2,3.6,96,0.00,,,0.00,WUHU216HW,2013-11-02 08:07:00,
2013-11-02 04:12:00,60.3,59.1,29.49,West,270,0.0,3.1,96,0.00,,,0.00,WUHU216HW,2013-11-02 08:12:00,
2013-11-02 04:17:00,60.3,59.1,29.49,West,270,0.2,1.3,96,0.00,,,0.00,WUHU216HW,2013-11-02 08:17:00,
2013-11-02 04:22:00,60.3,59.1,29.49,WNW,293,0.9,2.9,96,0.00,,,0.00,WUHU216HW,2013-11-02 08:22:00,
2013-11-02 04:27:00,60.1,59.0,29.49,WNW,293,3.8,3.8,96,0.00,,,0.00,WUHU216HW,2013-11-02 08:27:00,
2013-11-02 04:32:00,60.1,59.0,29.49,West,270,1.1,3.8,96,0.00,,,0.00,WUHU216HW,2013-11-02 08:32:00,
2013-11-02 04:37:00,60.1,59.0,29.49,WSW,248,0.7,3.8,96,0.00,,,0.00,WUHU216HW,2013-11-02 08:37:00,
2013-11-02 04:42:00,59.9,58.8,29.49,WNW,293,0.4,4.0,96,0.00,,,0.00,WUHU216HW,2013-11-02 08:42:00,
2013-11-02 04:47:00,59.8,58.6,29.49,WNW,293,1.1,4.7,96,0.00,,,0.00,WUHU216HW,2013-11-02 08:47:00,
2013-11-02 04:52:00,59.6,58.1,29.49,WNW,293,0.9,4.7,95,0.00,,,0.00,WUHU216HW,2013-11-02 08:52:00,
2013-11-02 04:57:00,59.4,58.0,29.48,SW,225,0.2,5.6,95,0.00,,,0.00,WUHU216HW,2013-11-02 08:57:00,
2013-11-02 05:02:00,59.0,57.6,29.48,WSW,248,1.1,5.6,95,0.00,,,0.00,WUHU216HW,2013-11-02 09:02:00,
2013-11-02 05:07:00,58.7,57.2,29.48,WNW,293,1.8,2.9,95,0.00,,,0.00,WUHU216HW,2013-11-02 09:07:00,
2013-11-02 05:12:00,58.3,56.9,29.48,SSE,158,0.4,3.4,95,0.00,,,0.00,WUHU216HW,2013-11-02 09:12:00,
2013-11-02 05:17:00,57.8,56.3,29.48,WNW,293,1.6,3.4,95,0.00,,,0.00,WUHU216HW,2013-11-02 09:17:00,
2013-11-02 05:22:00,57.4,56.0,29.48,WNW,293,3.4,5.1,95,0.00,,,0.00,WUHU216HW,2013-11-02 09:22:00,
2013-11-02 05:27:00,57.2,55.8,29.48,West,270,1.1,5.1,95,0.00,,,0.00,WUHU216HW,2013-11-02 09:27:00,
2013-11-02 05:32:00,57.1,55.6,29.48,North,0,0.4,3.4,95,0.00,,,0.00,WUHU216HW,2013-11-02 09:32:00,
2013-11-02 05:37:00,56.7,55.3,29.48,SW,225,0.4,4.3,95,0.00,,,0.00,WUHU216HW,2013-11-02 09:37:00,
2013-11-02 05:42:00,56.5,55.1,29.48,West,270,1.3,4.3,95,0.00,,,0.00,WUHU216HW,2013-11-02 09:42:00,
2013-11-02 05:47:00,56.3,54.9,29.49,West,270,1.1,2.2,95,0.00,,,0.00,WUHU216HW,2013-11-02 09:47:00,
2013-11-02 05:52:00,56.2,54.7,29.49,West,270,2.0,2.5,95,0.00,,,0.00,WUHU216HW,2013-11-02 09:52:00,
2013-11-02 05:57:00,56.0,54.5,29.49,WNW,293,1.8,2.9,95,0.00,,,0.00,WUHU216HW,2013-11-02 09:57:00,
2013-11-02 06:02:00,55.8,54.4,29.49,NNW,338,2.5,2.9,95,0.00,,,0.00,WUHU216HW,2013-11-02 10:02:00,
2013-11-02 06:07:00,55.8,54.4,29.50,SW,225,1.1,2.5,95,0.00,,,0.00,WUHU216HW,2013-11-02 10:07:00,
2013-11-02 06:12:00,55.6,54.2,29.51,SW,225,0.0,2.5,95,0.00,,,0.00,WUHU216HW,2013-11-02 10:12:00,
2013-11-02 06:17:00,55.4,54.0,29.52,SW,225,0.0,1.1,95,0.00,,,0.00,WUHU216HW,2013-11-02 10:17:00,
2013-11-02 06:22:00,55.1,53.6,29.52,SW,225,0.9,0.9,95,0.00,,,0.00,WUHU216HW,2013-11-02 10:22:00,
2013-11-02 06:27:00,55.1,53.6,29.52,WSW,248,1.1,1.8,95,0.00,,,0.00,WUHU216HW,2013-11-02 10:27:00,
2013-11-02 06:32:00,55.1,53.6,29.52,WSW,248,1.1,2.9,95,0.00,,,0.00,WUHU216HW,2013-11-02 10:32:00,
2013-11-02 06:37:00,55.1,53.6,29.52,WNW,293,1.1,2.9,95,0.00,,,0.00,WUHU216HW,2013-11-02 10:37:00,
2013-11-02 06:42:00,55.1,53.6,29.52,NW,315,1.1,2.5,95,0.00,,,0.00,WUHU216HW,2013-11-02 10:42:00,
2013-11-02 06:47:00,55.1,53.6,29.52,West,270,0.7,2.5,95,0.00,,,0.00,WUHU216HW,2013-11-02 10:47:00,
2013-11-02 06:52:00,55.1,53.6,29.53,West,270,0.0,1.6,95,0.00,,,0.00,WUHU216HW,2013-11-02 10:52:00,
2013-11-02 06:57:00,55.1,53.6,29.52,West,270,3.4,3.8,95,0.00,,,0.00,WUHU216HW,2013-11-02 10:57:00,
2013-11-02 07:02:00,55.1,53.6,29.53,West,270,2.7,4.0,95,0.00,,,0.00,WUHU216HW,2013-11-02 11:02:00,
2013-11-02 07:07:00,55.3,53.8,29.53,WNW,293,0.4,4.0,95,0.00,,,0.00,WUHU216HW,2013-11-02 11:07:00,
2013-11-02 07:12:00,55.3,53.8,29.53,WSW,248,3.1,3.1,95,0.00,,,0.00,WUHU216HW,2013-11-02 11:12:00,
2013-11-02 07:17:00,55.4,54.0,29.53,North,0,0.2,4.0,95,0.00,,,0.00,WUHU216HW,2013-11-02 11:17:00,
2013-11-02 07:22:00,55.4,54.0,29.53,ESE,113,0.4,4.0,95,0.00,,,0.00,WUHU216HW,2013-11-02 11:22:00,
2013-11-02 07:27:00,55.4,54.0,29.53,East,90,0.4,2.5,95,0.00,,,0.00,WUHU216HW,2013-11-02 11:27:00,
2013-11-02 07:32:00,55.3,53.8,29.52,NNW,338,0.4,2.2,95,0.00,,,0.00,WUHU216HW,2013-11-02 11:32:00,
2013-11-02 07:37:00,55.3,53.8,29.53,WNW,293,0.0,1.1,95,0.00,,,0.00,WUHU216HW,2013-11-02 11:37:00,
2013-11-02 07:42:00,55.1,53.4,29.53,WNW,293,0.0,1.1,94,0.00,,,0.00,WUHU216HW,2013-11-02 11:42:00,
2013-11-02 07:47:00,54.9,53.2,29.53,WNW,293,0.0,0.0,94,0.00,,,0.00,WUHU216HW,2013-11-02 11:47:00,
2013-11-02 07:52:00,54.7,53.0,29.53,WNW,293,0.0,0.0,94,0.00,,,0.00,WUHU216HW,2013-11-02 11:52:00,
2013-11-02 07:57:00,54.7,53.0,29.53,WNW,293,0.0,0.0,94,0.00,,,0.00,WUHU216HW,2013-11-02 11:57:00,
2013-11-02 08:02:00,54.5,52.8,29.53,WNW,293,0.0,1.1,94,0.00,,,0.00,WUHU216HW,2013-11-02 12:02:00,
2013-11-02 08:07:00,54.4,52.7,29.53,WNW,293,0.0,1.1,94,0.00,,,0.00,WUHU216HW,2013-11-02 12:07:00,
2013-11-02 08:12:00,54.4,52.7,29.53,WNW,293,0.0,0.2,94,0.00,,,0.00,WUHU216HW,2013-11-02 12:12:00,
2013-11-02 08:17:00,54.4,52.7,29.53,WNW,293,0.0,0.9,94,0.00,,,0.00,WUHU216HW,2013-11-02 12:17:00,
2013-11-02 08:22:00,54.7,53.0,29.53,WNW,293,0.0,0.9,94,0.00,,,0.00,WUHU216HW,2013-11-02 12:22:00,
2013-11-02 08:27:00,54.7,53.0,29.54,WNW,293,0.0,0.4,94,0.00,,,0.00,WUHU216HW,2013-11-02 12:27:00,
2013-11-02 08:32:00,54.7,53.0,29.53,WNW,293,0.0,0.0,94,0.00,,,0.00,WUHU216HW,2013-11-02 12:32:00,
2013-11-02 08:37:00,54.7,53.0,29.54,WNW,293,0.0,0.0,94,0.00,,,0.00,WUHU216HW,2013-11-02 12:37:00,
2013-11-02 08:42:00,54.7,53.0,29.53,WNW,293,0.0,0.0,94,0.00,,,0.00,WUHU216HW,2013-11-02 12:42:00,
2013-11-02 08:47:00,54.7,53.0,29.53,WNW,293,0.0,0.0,94,0.00,,,0.00,WUHU216HW,2013-11-02 12:47:00,
2013-11-02 08:52:00,56.2,54.5,29.53,WNW,293,0.0,0.0,94,0.00,,,0.00,WUHU216HW,2013-11-02 12:52:00,
2013-11-02 08:57:00,57.6,56.2,29.54,WNW,293,0.4,0.4,95,0.00,,,0.00,WUHU216HW,2013-11-02 12:57:00,
2013-11-02 09:02:00,57.8,55.8,29.54,ESE,113,0.2,1.6,93,0.00,,,0.00,WUHU216HW,2013-11-02 13:02:00,
2013-11-02 09:07:00,57.6,55.3,29.53,ESE,113,0.4,1.6,92,0.00,,,0.00,WUHU216HW,2013-11-02 13:07:00,
2013-11-02 09:12:00,57.2,55.3,29.54,ESE,113,0.0,1.1,93,0.00,,,0.00,WUHU216HW,2013-11-02 13:12:00,
2013-11-02 09:17:00,56.9,54.9,29.53,ESE,113,0.0,0.4,93,0.00,,,0.00,WUHU216HW,2013-11-02 13:17:00,
2013-11-02 09:22:00,56.7,54.7,29.52,ESE,113,0.0,0.4,93,0.00,,,0.00,WUHU216HW,2013-11-02 13:22:00,
2013-11-02 09:27:00,56.7,54.4,29.52,ESE,113,0.4,0.7,92,0.00,,,0.00,WUHU216HW,2013-11-02 13:27:00,
2013-11-02 09:32:00,56.5,54.2,29.52,ESE,113,0.0,0.9,92,0.00,,,0.00,WUHU216HW,2013-11-02 13:32:00,
2013-11-02 09:37:00,56.5,54.2,29.52,ESE,113,0.0,0.9,92,0.00,,,0.00,WUHU216HW,2013-11-02 13:37:00,
2013-11-02 09:42:00,56.7,54.4,29.52,ESE,113,0.0,0.2,92,0.00,,,0.00,WUHU216HW,2013-11-02 13:42:00,
2013-11-02 09:47:00,58.7,56.3,29.52,WNW,293,0.2,1.1,92,0.00,,,0.00,WUHU216HW,2013-11-02 13:47:00,
2013-11-02 09:52:00,60.3,57.4,29.52,West,270,1.6,1.8,90,0.00,,,0.00,WUHU216HW,2013-11-02 13:52:00,
2013-11-02 09:57:00,61.6,58.1,29.52,WNW,293,1.1,2.0,88,0.00,,,0.00,WUHU216HW,2013-11-02 13:57:00,
2013-11-02 10:02:00,63.0,59.1,29.52,ESE,113,0.4,2.0,87,0.00,,,0.00,WUHU216HW,2013-11-02 14:02:00,
2013-11-02 10:07:00,64.1,58.8,29.52,East,90,0.2,2.7,83,0.00,,,0.00,WUHU216HW,2013-11-02 14:07:00,
2013-11-02 10:12:00,64.6,59.1,29.52,North,0,2.0,2.7,82,0.00,,,0.00,WUHU216HW,2013-11-02 14:12:00,
2013-11-02 10:17:00,64.8,58.5,29.52,NNE,23,1.8,2.5,80,0.00,,,0.00,WUHU216HW,2013-11-02 14:17:00,
2013-11-02 10:22:00,64.4,57.8,29.52,NNE,23,1.1,2.5,79,0.00,,,0.00,WUHU216HW,2013-11-02 14:22:00,
2013-11-02 10:27:00,64.6,58.3,29.52,ESE,113,0.4,2.7,80,0.00,,,0.00,WUHU216HW,2013-11-02 14:27:00,
2013-11-02 10:32:00,64.8,58.5,29.52,ENE,68,0.4,2.7,80,0.00,,,0.00,WUHU216HW,2013-11-02 14:32:00,
2013-11-02 10:37:00,65.5,59.2,29.51,ESE,113,0.0,1.3,80,0.00,,,0.00,WUHU216HW,2013-11-02 14:37:00,
2013-11-02 10:42:00,66.6,59.1,29.52,North,0,0.0,2.5,77,0.00,,,0.00,WUHU216HW,2013-11-02 14:42:00,
2013-11-02 10:47:00,67.5,59.0,29.52,ENE,68,1.8,2.5,74,0.00,,,0.00,WUHU216HW,2013-11-02 14:47:00,
2013-11-02 10:52:00,68.6,58.9,29.52,SE,135,0.9,2.9,71,0.00,,,0.00,WUHU216HW,2013-11-02 14:52:00,
2013-11-02 10:57:00,68.6,58.9,29.52,NNE,23,2.2,2.9,71,0.00,,,0.00,WUHU216HW,2013-11-02 14:57:00,
2013-11-02 11:02:00,69.1,57.7,29.52,ESE,113,3.1,4.5,67,0.00,,,0.00,WUHU216HW,2013-11-02 15:02:00,
2013-11-02 11:07:00,68.8,56.9,29.52,ESE,113,1.1,4.9,66,0.00,,,0.00,WUHU216HW,2013-11-02 15:07:00,
2013-11-02 11:12:00,68.9,58.3,29.51,ESE,113,2.5,4.9,69,0.00,,,0.00,WUHU216HW,2013-11-02 15:12:00,
2013-11-02 11:17:00,68.8,56.1,29.52,SE,135,2.2,2.5,64,0.00,,,0.00,WUHU216HW,2013-11-02 15:17:00,
2013-11-02 11:22:00,68.0,54.6,29.51,ENE,68,2.2,3.4,62,0.00,,,0.00,WUHU216HW,2013-11-02 15:22:00,
2013-11-02 11:27:00,68.4,55.3,29.52,ESE,113,2.9,3.4,63,0.00,,,0.00,WUHU216HW,2013-11-02 15:27:00,
2013-11-02 11:32:00,68.9,53.0,29.52,ESE,113,1.1,2.9,57,0.00,,,0.00,WUHU216HW,2013-11-02 15:32:00,
2013-11-02 11:37:00,69.1,56.4,29.52,East,90,0.7,2.5,64,0.00,,,0.00,WUHU216HW,2013-11-02 15:37:00,
2013-11-02 11:42:00,70.4,56.3,29.53,ESE,113,1.3,2.5,61,0.00,,,0.00,WUHU216HW,2013-11-02 15:42:00,
2013-11-02 11:47:00,71.3,56.7,29.53,North,0,1.3,2.5,60,0.00,,,0.00,WUHU216HW,2013-11-02 15:47:00,
2013-11-02 11:52:00,71.6,57.5,29.53,SE,135,2.2,2.5,61,0.00,,,0.00,WUHU216HW,2013-11-02 15:52:00,
2013-11-02 11:57:00,72.5,56.9,29.52,ENE,68,1.3,2.2,58,0.00,,,0.00,WUHU216HW,2013-11-02 15:57:00,
2013-11-02 12:02:00,71.8,54.7,29.52,ESE,113,1.1,2.2,55,0.00,,,0.00,WUHU216HW,2013-11-02 16:02:00,
2013-11-02 12:07:00,70.4,53.4,29.53,East,90,1.8,2.2,55,0.00,,,0.00,WUHU216HW,2013-11-02 16:07:00,
2013-11-02 12:12:00,69.7,52.7,29.52,East,90,0.9,2.5,55,0.00,,,0.00,WUHU216HW,2013-11-02 16:12:00,
2013-11-02 12:17:00,68.9,53.0,29.52,NE,45,0.4,2.5,57,0.00,,,0.00,WUHU216HW,2013-11-02 16:17:00,
2013-11-02 12:22:00,68.9,52.0,29.52,ESE,113,1.3,1.6,55,0.00,,,0.00,WUHU216HW,2013-11-02 16:22:00,
2013-11-02 12:27:00,69.1,52.8,29.52,SE,135,2.5,3.4,56,0.00,,,0.00,WUHU216HW,2013-11-02 16:27:00,
2013-11-02 12:32:00,68.9,52.6,29.52,ESE,113,1.1,3.4,56,0.00,,,0.00,WUHU216HW,2013-11-02 16:32:00,
2013-11-02 12:37:00,68.8,52.4,29.52,ESE,113,0.9,2.5,56,0.00,,,0.00,WUHU216HW,2013-11-02 16:37:00,
2013-11-02 12:42:00,68.8,51.4,29.52,ENE,68,0.7,1.8,54,0.00,,,0.00,WUHU216HW,2013-11-02 16:42:00,
2013-11-02 12:47:00,68.4,51.6,29.52,West,270,2.9,2.9,55,0.00,,,0.00,WUHU216HW,2013-11-02 16:47:00,
2013-11-02 12:52:00,68.0,50.2,29.51,East,90,2.7,2.9,53,0.00,,,0.00,WUHU216HW,2013-11-02 16:52:00,
2013-11-02 12:57:00,68.0,50.8,29.51,WNW,293,2.2,2.7,54,0.00,,,0.00,WUHU216HW,2013-11-02 16:57:00,
2013-11-02 13:02:00,68.0,50.8,29.50,SE,135,4.0,4.0,54,0.00,,,0.00,WUHU216HW,2013-11-02 17:02:00,
2013-11-02 13:07:00,67.9,51.6,29.50,NNE,23,0.0,4.0,56,0.00,,,0.00,WUHU216HW,2013-11-02 17:07:00,
2013-11-02 13:12:00,68.0,50.8,29.50,NE,45,1.3,2.5,54,0.00,,,0.00,WUHU216HW,2013-11-02 17:12:00,
2013-11-02 13:17:00,68.4,52.6,29.49,ENE,68,0.0,2.5,57,0.00,,,0.00,WUHU216HW,2013-11-02 17:17:00,
2013-11-02 13:22:00,68.8,51.9,29.50,East,90,0.7,1.6,55,0.00,,,0.00,WUHU216HW,2013-11-02 17:22:00,
2013-11-02 13:27:00,68.9,53.0,29.50,East,90,0.0,1.3,57,0.00,,,0.00,WUHU216HW,2013-11-02 17:27:00,
2013-11-02 13:32:00,69.5,54.1,29.50,SE,135,1.8,1.8,58,0.00,,,0.00,WUHU216HW,2013-11-02 17:32:00,
2013-11-02 13:37:00,69.7,53.7,29.49,WNW,293,1.1,2.5,57,0.00,,,0.00,WUHU216HW,2013-11-02 17:37:00,
2013-11-02 13:42:00,69.7,51.2,29.50,WNW,293,0.7,3.4,52,0.00,,,0.00,WUHU216HW,2013-11-02 17:42:00,
2013-11-02 13:47:00,69.8,50.4,29.50,WNW,293,2.0,3.4,50,0.00,,,0.00,WUHU216HW,2013-11-02 17:47:00,
2013-11-02 13:52:00,69.7,50.2,29.50,West,270,0.4,2.9,50,0.00,,,0.00,WUHU216HW,2013-11-02 17:52:00,
2013-11-02 13:57:00,69.8,49.8,29.50,WNW,293,0.4,2.5,49,0.00,,,0.00,WUHU216HW,2013-11-02 17:57:00,
2013-11-02 14:02:00,69.8,50.4,29.50,West,270,0.7,2.0,50,0.00,,,0.00,WUHU216HW,2013-11-02 18:02:00,
2013-11-02 14:07:00,70.0,50.6,29.49,South,180,0.0,2.0,50,0.00,,,0.00,WUHU216HW,2013-11-02 18:07:00,
2013-11-02 14:12:00,70.2,48.3,29.50,WSW,248,2.0,2.7,46,0.00,,,0.00,WUHU216HW,2013-11-02 18:12:00,
2013-11-02 14:17:00,70.2,49.0,29.49,WNW,293,0.4,4.3,47,0.00,,,0.00,WUHU216HW,2013-11-02 18:17:00,
2013-11-02 14:22:00,70.2,50.8,29.49,South,180,0.0,4.3,50,0.00,,,0.00,WUHU216HW,2013-11-02 18:22:00,
2013-11-02 14:27:00,70.0,48.8,29.50,West,270,0.2,2.7,47,0.00,,,0.00,WUHU216HW,2013-11-02 18:27:00,
2013-11-02 14:32:00,69.7,48.4,29.50,West,270,0.7,2.7,47,0.00,,,0.00,WUHU216HW,2013-11-02 18:32:00,
2013-11-02 14:37:00,69.8,48.6,29.50,WSW,248,0.0,4.3,47,0.00,,,0.00,WUHU216HW,2013-11-02 18:37:00,
2013-11-02 14:42:00,69.7,48.4,29.50,West,270,0.4,4.3,47,0.00,,,0.00,WUHU216HW,2013-11-02 18:42:00,
2013-11-02 14:47:00,69.8,48.6,29.50,West,270,2.0,4.0,47,0.00,,,0.00,WUHU216HW,2013-11-02 18:47:00,
2013-11-02 14:52:00,70.2,50.1,29.50,WSW,248,0.7,2.0,49,0.00,,,0.00,WUHU216HW,2013-11-02 18:52:00,
2013-11-02 14:57:00,70.4,49.2,29.50,WSW,248,1.1,1.6,47,0.00,,,0.00,WUHU216HW,2013-11-02 18:57:00,
2013-11-02 15:02:00,70.4,49.7,29.50,WSW,248,0.2,1.8,48,0.00,,,0.00,WUHU216HW,2013-11-02 19:02:00,
2013-11-02 15:07:00,70.0,49.4,29.50,SW,225,0.0,2.0,48,0.00,,,0.00,WUHU216HW,2013-11-02 19:07:00,
2013-11-02 15:12:00,69.8,49.2,29.50,WNW,293,2.0,2.5,48,0.00,,,0.00,WUHU216HW,2013-11-02 19:12:00,
2013-11-02 15:17:00,69.5,48.9,29.50,WSW,248,1.3,3.1,48,0.00,,,0.00,WUHU216HW,2013-11-02 19:17:00,
2013-11-02 15:22:00,69.7,49.7,29.50,WSW,248,0.2,3.1,49,0.00,,,0.00,WUHU216HW,2013-11-02 19:22:00,
2013-11-02 15:27:00,69.7,50.2,29.50,West,270,0.9,2.7,50,0.00,,,0.00,WUHU216HW,2013-11-02 19:27:00,
2013-11-02 15:32:00,69.3,48.2,29.50,WSW,248,1.1,2.5,47,0.00,,,0.00,WUHU216HW,2013-11-02 19:32:00,
2013-11-02 15:37:00,68.9,48.4,29.50,WSW,248,1.8,2.5,48,0.00,,,0.00,WUHU216HW,2013-11-02 19:37:00,
2013-11-02 15:42:00,68.9,48.4,29.49,WSW,248,0.0,2.7,48,0.00,,,0.00,WUHU216HW,2013-11-02 19:42:00,
2013-11-02 15:47:00,69.1,48.6,29.49,West,270,1.1,2.7,48,0.00,,,0.00,WUHU216HW,2013-11-02 19:47:00,
2013-11-02 15:52:00,69.5,48.9,29.49,West,270,0.4,2.7,48,0.00,,,0.00,WUHU216HW,2013-11-02 19:52:00,
2013-11-02 15:57:00,69.3,48.2,29.49,NW,315,0.7,2.7,47,0.00,,,0.00,WUHU216HW,2013-11-02 19:57:00,
2013-11-02 16:02:00,68.9,48.4,29.49,NNW,338,1.8,5.6,48,0.00,,,0.00,WUHU216HW,2013-11-02 20:02:00,
2013-11-02 16:07:00,68.6,46.9,29.49,NW,315,5.4,5.6,46,0.00,,,0.00,WUHU216HW,2013-11-02 20:07:00,
2013-11-02 16:12:00,68.0,47.0,29.49,West,270,1.8,5.4,47,0.00,,,0.00,WUHU216HW,2013-11-02 20:12:00,
2013-11-02 16:17:00,68.0,47.6,29.49,NW,315,0.4,5.4,48,0.00,,,0.00,WUHU216HW,2013-11-02 20:17:00,
2013-11-02 16:22:00,68.0,48.8,29.49,NNW,338,0.4,4.3,50,0.00,,,0.00,WUHU216HW,2013-11-02 20:22:00,
2013-11-02 16:27:00,68.0,48.2,29.49,WSW,248,1.3,4.5,49,0.00,,,0.00,WUHU216HW,2013-11-02 20:27:00,
2013-11-02 16:32:00,67.7,47.9,29.49,NW,315,1.8,4.5,49,0.00,,,0.00,WUHU216HW,2013-11-02 20:32:00,
2013-11-02 16:37:00,67.7,47.9,29.49,WNW,293,1.3,3.6,49,0.00,,,0.00,WUHU216HW,2013-11-02 20:37:00,
2013-11-02 16:42:00,67.3,48.2,29.50,West,270,0.4,3.6,50,0.00,,,0.00,WUHU216HW,2013-11-02 20:42:00,
2013-11-02 16:47:00,67.0,48.3,29.50,West,270,2.9,4.0,51,0.00,,,0.00,WUHU216HW,2013-11-02 20:47:00,
2013-11-02 16:52:00,66.6,48.0,29.50,WSW,248,4.9,4.9,51,0.00,,,0.00,WUHU216HW,2013-11-02 20:52:00,
2013-11-02 16:57:00,66.2,47.6,29.50,West,270,0.9,4.9,51,0.00,,,0.00,WUHU216HW,2013-11-02 20:57:00,
2013-11-02 17:02:00,66.1,48.0,29.50,WNW,293,1.8,4.3,52,0.00,,,0.00,WUHU216HW,2013-11-02 21:02:00,
2013-11-02 17:07:00,65.9,48.2,29.50,West,270,0.7,1.8,53,0.00,,,0.00,WUHU216HW,2013-11-02 21:07:00,
2013-11-02 17:12:00,65.5,48.4,29.51,WSW,248,0.0,1.8,54,0.00,,,0.00,WUHU216HW,2013-11-02 21:12:00,
2013-11-02 17:17:00,65.2,48.5,29.52,WSW,248,0.0,0.9,55,0.00,,,0.00,WUHU216HW,2013-11-02 21:17:00,
2013-11-02 17:22:00,64.8,49.2,29.52,WSW,248,0.2,0.4,57,0.00,,,0.00,WUHU216HW,2013-11-02 21:22:00,
2013-11-02 17:27:00,64.4,48.8,29.52,SW,225,0.2,1.6,57,0.00,,,0.00,WUHU216HW,2013-11-02 21:27:00,
2013-11-02 17:32:00,64.3,48.6,29.53,SW,225,1.3,2.0,57,0.00,,,0.00,WUHU216HW,2013-11-02 21:32:00,
2013-11-02 17:37:00,64.1,48.4,29.52,WSW,248,2.0,3.1,57,0.00,,,0.00,WUHU216HW,2013-11-02 21:37:00,
2013-11-02 17:42:00,64.1,48.4,29.53,WSW,248,1.1,3.1,57,0.00,,,0.00,WUHU216HW,2013-11-02 21:42:00,
2013-11-02 17:47:00,64.1,48.4,29.52,WNW,293,2.5,4.0,57,0.00,,,0.00,WUHU216HW,2013-11-02 21:47:00,
2013-11-02 17:52:00,63.9,48.8,29.53,West,270,1.8,4.0,58,0.00,,,0.00,WUHU216HW,2013-11-02 21:52:00,
2013-11-02 17:57:00,63.7,48.6,29.54,NW,315,1.1,2.5,58,0.00,,,0.00,WUHU216HW,2013-11-02 21:57:00,
2013-11-02 18:02:00,63.5,48.4,29.54,SW,225,0.7,3.6,58,0.00,,,0.00,WUHU216HW,2013-11-02 22:02:00,
2013-11-02 18:07:00,63.2,48.2,29.54,WNW,293,1.1,3.6,58,0.00,,,0.00,WUHU216HW,2013-11-02 22:07:00,
2013-11-02 18:12:00,62.8,47.8,29.55,West,270,2.7,3.6,58,0.00,,,0.00,WUHU216HW,2013-11-02 22:12:00,
2013-11-02 18:17:00,62.6,47.6,29.55,WNW,293,1.3,3.6,58,0.00,,,0.00,WUHU216HW,2013-11-02 22:17:00,
2013-11-02 18:22:00,62.5,47.4,29.55,NW,315,0.9,3.6,58,0.00,,,0.00,WUHU216HW,2013-11-02 22:22:00,
2013-11-02 18:27:00,62.3,47.4,29.55,NW,315,1.1,3.6,58,0.00,,,0.00,WUHU216HW,2013-11-02 22:27:00,
2013-11-02 18:32:00,62.1,47.2,29.55,WSW,248,0.9,3.4,58,0.00,,,0.00,WUHU216HW,2013-11-02 22:32:00,
2013-11-02 18:37:00,61.9,47.0,29.56,West,270,1.8,3.6,58,0.00,,,0.00,WUHU216HW,2013-11-02 22:37:00,
2013-11-02 18:42:00,61.7,46.8,29.57,NW,315,1.1,3.6,58,0.00,,,0.00,WUHU216HW,2013-11-02 22:42:00,
2013-11-02 18:47:00,61.6,46.6,29.56,North,0,0.9,3.6,58,0.00,,,0.00,WUHU216HW,2013-11-02 22:47:00,
2013-11-02 18:52:00,61.4,46.5,29.56,NW,315,0.4,5.6,58,0.00,,,0.00,WUHU216HW,2013-11-02 22:52:00,
2013-11-02 18:57:00,61.4,46.0,29.56,WSW,248,1.8,5.6,57,0.00,,,0.00,WUHU216HW,2013-11-02 22:57:00,
2013-11-02 19:02:00,61.2,45.8,29.56,WNW,293,3.6,3.6,57,0.00,,,0.00,WUHU216HW,2013-11-02 23:02:00,
2013-11-02 19:07:00,61.2,45.8,29.57,West,270,1.1,3.6,57,0.00,,,0.00,WUHU216HW,2013-11-02 23:07:00,
2013-11-02 19:12:00,61.0,45.7,29.57,WNW,293,1.8,5.8,57,0.00,,,0.00,WUHU216HW,2013-11-02 23:12:00,
2013-11-02 19:17:00,60.7,45.4,29.57,WSW,248,1.8,5.8,57,0.00,,,0.00,WUHU216HW,2013-11-02 23:17:00,
2013-11-02 19:22:00,60.5,45.6,29.57,WSW,248,2.0,3.6,58,0.00,,,0.00,WUHU216HW,2013-11-02 23:22:00,
2013-11-02 19:27:00,60.1,45.3,29.58,WSW,248,2.5,4.0,58,0.00,,,0.00,WUHU216HW,2013-11-02 23:27:00,
2013-11-02 19:32:00,59.9,45.1,29.57,WNW,293,3.4,5.6,58,0.00,,,0.00,WUHU216HW,2013-11-02 23:32:00,
2013-11-02 19:37:00,59.9,45.6,29.58,WSW,248,1.1,5.6,59,0.00,,,0.00,WUHU216HW,2013-11-02 23:37:00,
2013-11-02 19:42:00,59.9,45.6,29.59,SW,225,2.0,4.9,59,0.00,,,0.00,WUHU216HW,2013-11-02 23:42:00,
2013-11-02 19:47:00,59.8,45.5,29.59,West,270,2.0,3.4,59,0.00,,,0.00,WUHU216HW,2013-11-02 23:47:00,
2013-11-02 19:52:00,59.8,45.5,29.60,SW,225,0.7,2.7,59,0.00,,,0.00,WUHU216HW,2013-11-02 23:52:00,
2013-11-02 19:57:00,59.4,45.5,29.60,WSW,248,1.6,2.2,60,0.00,,,0.00,WUHU216HW,2013-11-02 23:57:00,
2013-11-02 20:02:00,59.4,45.5,29.61,West,270,2.2,2.2,60,0.00,,,0.00,WUHU216HW,2013-11-03 00:02:00,
2013-11-02 20:07:00,59.4,46.0,29.60,WSW,248,0.7,2.2,61,0.00,,,0.00,WUHU216HW,2013-11-03 00:07:00,
2013-11-02 20:12:00,59.2,45.8,29.61,WNW,293,0.4,1.6,61,0.00,,,0.00,WUHU216HW,2013-11-03 00:12:00,
2013-11-02 20:17:00,59.0,46.0,29.62,WSW,248,0.2,1.1,62,0.00,,,0.00,WUHU216HW,2013-11-03 00:17:00,
2013-11-02 20:22:00,58.9,45.5,29.62,WSW,248,0.7,2.5,61,0.00,,,0.00,WUHU216HW,2013-11-03 00:22:00,
2013-11-02 20:27:00,58.7,45.7,29.61,WSW,248,1.6,2.5,62,0.00,,,0.00,WUHU216HW,2013-11-03 00:27:00,
2013-11-02 20:32:00,58.7,45.7,29.61,WSW,248,0.7,2.5,62,0.00,,,0.00,WUHU216HW,2013-11-03 00:32:00,
2013-11-02 20:37:00,58.5,45.9,29.62,SW,225,2.2,3.6,63,0.00,,,0.00,WUHU216HW,2013-11-03 00:37:00,
2013-11-02 20:42:00,58.5,45.9,29.62,WNW,293,2.0,4.3,63,0.00,,,0.00,WUHU216HW,2013-11-03 00:42:00,
2013-11-02 20:47:00,58.5,45.9,29.62,NW,315,1.8,4.3,63,0.00,,,0.00,WUHU216HW,2013-11-03 00:47:00,
2013-11-02 20:52:00,58.3,45.4,29.62,WSW,248,1.3,3.6,62,0.00,,,0.00,WUHU216HW,2013-11-03 00:52:00,
2013-11-02 20:57:00,58.5,45.9,29.63,SW,225,0.9,6.3,63,0.00,,,0.00,WUHU216HW,2013-11-03 00:57:00,
2013-11-02 21:02:00,58.1,45.6,29.62,WSW,248,3.6,6.3,63,0.00,,,0.00,WUHU216HW,2013-11-03 01:02:00,
2013-11-02 21:07:00,58.0,45.5,29.62,WSW,248,1.8,4.7,63,0.00,,,0.00,WUHU216HW,2013-11-03 01:07:00,
2013-11-02 21:12:00,58.0,45.5,29.62,West,270,1.6,5.4,63,0.00,,,0.00,WUHU216HW,2013-11-03 01:12:00,
2013-11-02 21:17:00,58.0,45.5,29.63,NW,315,1.8,7.6,63,0.00,,,0.00,WUHU216HW,2013-11-03 01:17:00,
2013-11-02 21:22:00,58.1,45.2,29.63,South,180,1.8,7.6,62,0.00,,,0.00,WUHU216HW,2013-11-03 01:22:00,
2013-11-02 21:27:00,58.1,44.8,29.63,WNW,293,3.4,6.5,61,0.00,,,0.00,WUHU216HW,2013-11-03 01:27:00,
2013-11-02 21:32:00,58.0,44.7,29.63,West,270,1.1,5.4,61,0.00,,,0.00,WUHU216HW,2013-11-03 01:32:00,
2013-11-02 21:37:00,58.0,44.7,29.64,WNW,293,3.4,6.9,61,0.00,,,0.00,WUHU216HW,2013-11-03 01:37:00,
2013-11-02 21:42:00,57.8,44.5,29.64,WSW,248,4.9,6.9,61,0.00,,,0.00,WUHU216HW,2013-11-03 01:42:00,
2013-11-02 21:47:00,57.6,44.3,29.64,West,270,0.4,4.9,61,0.00,,,0.00,WUHU216HW,2013-11-03 01:47:00,
2013-11-02 21:52:00,57.6,44.3,29.64,NW,315,2.0,3.6,61,0.00,,,0.00,WUHU216HW,2013-11-03 01:52:00,
2013-11-02 21:57:00,57.6,44.3,29.65,West,270,1.1,3.8,61,0.00,,,0.00,WUHU216HW,2013-11-03 01:57:00,
2013-11-02 22:02:00,57.4,44.1,29.65,West,270,0.9,3.8,61,0.00,,,0.00,WUHU216HW,2013-11-03 02:02:00,
2013-11-02 22:07:00,57.2,43.9,29.64,West,270,1.1,2.2,61,0.00,,,0.00,WUHU216HW,2013-11-03 02:07:00,
2013-11-02 22:12:00,57.2,44.4,29.64,WNW,293,1.6,2.2,62,0.00,,,0.00,WUHU216HW,2013-11-03 02:12:00,
2013-11-02 22:17:00,56.9,44.0,29.64,WSW,248,0.4,1.8,62,0.00,,,0.00,WUHU216HW,2013-11-03 02:17:00,
2013-11-02 22:22:00,56.9,44.4,29.64,West,270,0.9,1.8,63,0.00,,,0.00,WUHU216HW,2013-11-03 02:22:00,
2013-11-02 22:27:00,56.7,44.2,29.64,West,270,1.1,2.2,63,0.00,,,0.00,WUHU216HW,2013-11-03 02:27:00,
2013-11-02 22:32:00,56.5,44.0,29.65,NW,315,1.1,2.2,63,0.00,,,0.00,WUHU216HW,2013-11-03 02:32:00,
2013-11-02 22:37:00,56.5,44.0,29.65,WSW,248,0.7,2.0,63,0.00,,,0.00,WUHU216HW,2013-11-03 02:37:00,
2013-11-02 22:42:00,56.2,43.8,29.65,West,270,0.0,1.3,63,0.00,,,0.00,WUHU216HW,2013-11-03 02:42:00,
2013-11-02 22:47:00,55.8,43.7,29.65,West,270,0.9,1.3,64,0.00,,,0.00,WUHU216HW,2013-11-03 02:47:00,
2013-11-02 22:52:00,55.4,43.4,29.65,WNW,293,0.0,1.8,64,0.00,,,0.00,WUHU216HW,2013-11-03 02:52:00,
2013-11-02 22:57:00,55.1,43.5,29.65,WNW,293,0.0,1.8,65,0.00,,,0.00,WUHU216HW,2013-11-03 02:57:00,
2013-11-02 23:02:00,54.9,43.8,29.65,WNW,293,0.0,0.4,66,0.00,,,0.00,WUHU216HW,2013-11-03 03:02:00,
2013-11-02 23:07:00,54.4,43.2,29.65,WNW,293,0.0,0.4,66,0.00,,,0.00,WUHU216HW,2013-11-03 03:07:00,
2013-11-02 23:12:00,54.0,43.3,29.65,WNW,293,0.0,0.0,67,0.00,,,0.00,WUHU216HW,2013-11-03 03:12:00,
2013-11-02 23:17:00,53.6,42.9,29.65,WNW,293,0.0,0.0,67,0.00,,,0.00,WUHU216HW,2013-11-03 03:17:00,
2013-11-02 23:22:00,53.5,43.1,29.65,WNW,293,0.0,0.4,68,0.00,,,0.00,WUHU216HW,2013-11-03 03:22:00,
2013-11-02 23:27:00,53.3,43.4,29.66,WSW,248,0.0,0.7,69,0.00,,,0.00,WUHU216HW,2013-11-03 03:27:00,
2013-11-02 23:32:00,53.3,43.4,29.66,West,270,0.0,0.7,69,0.00,,,0.00,WUHU216HW,2013-11-03 03:32:00,
2013-11-02 23:37:00,53.1,43.2,29.66,West,270,0.0,0.4,69,0.00,,,0.00,WUHU216HW,2013-11-03 03:37:00,
2013-11-02 23:42:00,52.7,42.9,29.66,West,270,0.0,0.0,69,0.00,,,0.00,WUHU216HW,2013-11-03 03:42:00,
2013-11-02 23:47:00,52.6,43.1,29.66,West,270,0.0,0.2,70,0.00,,,0.00,WUHU216HW,2013-11-03 03:47:00,
2013-11-02 23:52:00,52.4,42.9,29.66,West,270,0.2,0.2,70,0.00,,,0.00,WUHU216HW,2013-11-03 03:52:00,
2013-11-02 23:57:00,52.4,43.3,29.67,West,270,0.4,0.4,71,0.00,,,0.00,WUHU216HW,2013-11-03 03:57:00,